sensor_id;sensor_type;location;lat;lon;timestamp;P1;durP1;ratioP1;P2;durP2;ratioP2
5912;SDS011;2982;42.684;23.356;2022-08-21T00:02:12;15.80;;;12.50;;
5912;SDS011;2982;42.684;23.356;2022-08-21T00:04:42;19.38;;;13.10;;
5912;SDS011;2982;42.684;23.356;2022-08-21T00:07:08;17.25;;;11.18;;
5912;SDS011;2982;42.684;23.356;2022-08-21T00:09:34;13.07;;;11.43;;
5912;SDS011;2982;42.684;23.356;2022-08-21T00:11:59;16.83;;;11.52;;
5912;SDS011;2982;42.684;23.356;2022-08-21T00:14:24;13.43;;;11.60;;
5912;SDS011;2982;42.684;23.356;2022-08-21T00:16:50;28.08;;;14.15;;
5912;SDS011;2982;42.684;23.356;2022-08-21T00:19:15;17.55;;;14.55;;
5912;SDS011;2982;42.684;23.356;2022-08-21T00:21:40;23.45;;;15.13;;
5912;SDS011;2982;42.684;23.356;2022-08-21T00:24:06;19.63;;;15.18;;
5912;SDS011;2982;42.684;23.356;2022-08-21T00:26:31;18.70;;;14.68;;
5912;SDS011;2982;42.684;23.356;2022-08-21T00:28:57;19.38;;;15.20;;
5912;SDS011;2982;42.684;23.356;2022-08-21T00:31:22;19.92;;;15.07;;
5912;SDS011;2982;42.684;23.356;2022-08-21T00:33:48;21.35;;;14.75;;
5912;SDS011;2982;42.684;23.356;2022-08-21T00:36:13;14.80;;;12.88;;
5912;SDS011;2982;42.684;23.356;2022-08-21T00:38:39;27.40;;;15.80;;
5912;SDS011;2982;42.684;23.356;2022-08-21T00:41:05;18.65;;;13.30;;
5912;SDS011;2982;42.684;23.356;2022-08-21T00:43:33;17.20;;;13.30;;
5912;SDS011;2982;42.684;23.356;2022-08-21T00:46:00;18.25;;;14.20;;
5912;SDS011;2982;42.684;23.356;2022-08-21T00:48:26;15.15;;;13.63;;
5912;SDS011;2982;42.684;23.356;2022-08-21T00:50:54;17.52;;;13.07;;
5912;SDS011;2982;42.684;23.356;2022-08-21T00:53:23;15.98;;;12.48;;
5912;SDS011;2982;42.684;23.356;2022-08-21T00:55:50;19.15;;;12.90;;
5912;SDS011;2982;42.684;23.356;2022-08-21T00:58:22;18.20;;;13.88;;
5912;SDS011;2982;42.684;23.356;2022-08-21T01:00:49;21.10;;;14.63;;
5912;SDS011;2982;42.684;23.356;2022-08-21T01:03:16;22.77;;;14.07;;
5912;SDS011;2982;42.684;23.356;2022-08-21T01:05:45;19.42;;;13.15;;
5912;SDS011;2982;42.684;23.356;2022-08-21T01:08:12;20.27;;;15.00;;
5912;SDS011;2982;42.684;23.356;2022-08-21T01:10:39;20.52;;;14.65;;
5912;SDS011;2982;42.684;23.356;2022-08-21T01:13:06;21.75;;;15.93;;
5912;SDS011;2982;42.684;23.356;2022-08-21T01:15:36;20.55;;;15.00;;
5912;SDS011;2982;42.684;23.356;2022-08-21T01:18:04;29.70;;;18.75;;
5912;SDS011;2982;42.684;23.356;2022-08-21T01:20:31;30.98;;;19.15;;
5912;SDS011;2982;42.684;23.356;2022-08-21T01:22:57;32.25;;;19.20;;
5912;SDS011;2982;42.684;23.356;2022-08-21T01:25:22;32.42;;;19.55;;
5912;SDS011;2982;42.684;23.356;2022-08-21T01:27:48;30.45;;;19.75;;
5912;SDS011;2982;42.684;23.356;2022-08-21T01:30:18;29.00;;;17.60;;
5912;SDS011;2982;42.684;23.356;2022-08-21T01:32:46;34.13;;;19.60;;
5912;SDS011;2982;42.684;23.356;2022-08-21T01:35:13;27.85;;;19.33;;
5912;SDS011;2982;42.684;23.356;2022-08-21T01:37:40;29.17;;;19.45;;
5912;SDS011;2982;42.684;23.356;2022-08-21T01:40:07;26.63;;;18.55;;
5912;SDS011;2982;42.684;23.356;2022-08-21T01:42:33;32.72;;;20.23;;
5912;SDS011;2982;42.684;23.356;2022-08-21T01:44:59;29.77;;;19.48;;
5912;SDS011;2982;42.684;23.356;2022-08-21T01:47:24;30.05;;;19.02;;
5912;SDS011;2982;42.684;23.356;2022-08-21T01:49:50;27.85;;;19.40;;
5912;SDS011;2982;42.684;23.356;2022-08-21T01:52:15;31.92;;;20.35;;
5912;SDS011;2982;42.684;23.356;2022-08-21T01:54:41;34.55;;;19.50;;
5912;SDS011;2982;42.684;23.356;2022-08-21T01:57:07;35.47;;;20.77;;
5912;SDS011;2982;42.684;23.356;2022-08-21T01:59:32;33.47;;;20.35;;
5912;SDS011;2982;42.684;23.356;2022-08-21T02:01:58;31.75;;;19.63;;
5912;SDS011;2982;42.684;23.356;2022-08-21T02:04:23;33.42;;;19.70;;
5912;SDS011;2982;42.684;23.356;2022-08-21T02:06:49;31.98;;;20.35;;
5912;SDS011;2982;42.684;23.356;2022-08-21T02:09:15;35.35;;;21.10;;
5912;SDS011;2982;42.684;23.356;2022-08-21T02:11:41;38.95;;;24.27;;
5912;SDS011;2982;42.684;23.356;2022-08-21T02:14:07;34.05;;;22.52;;
5912;SDS011;2982;42.684;23.356;2022-08-21T02:16:33;45.78;;;26.45;;
5912;SDS011;2982;42.684;23.356;2022-08-21T02:18:59;44.50;;;28.63;;
5912;SDS011;2982;42.684;23.356;2022-08-21T02:21:24;59.70;;;30.17;;
5912;SDS011;2982;42.684;23.356;2022-08-21T02:23:50;46.25;;;27.77;;
5912;SDS011;2982;42.684;23.356;2022-08-21T02:26:15;45.10;;;27.60;;
5912;SDS011;2982;42.684;23.356;2022-08-21T02:28:40;57.50;;;30.67;;
5912;SDS011;2982;42.684;23.356;2022-08-21T02:31:06;56.42;;;31.05;;
5912;SDS011;2982;42.684;23.356;2022-08-21T02:33:31;52.70;;;30.38;;
5912;SDS011;2982;42.684;23.356;2022-08-21T02:35:57;52.65;;;29.45;;
5912;SDS011;2982;42.684;23.356;2022-08-21T02:38:24;53.55;;;30.65;;
5912;SDS011;2982;42.684;23.356;2022-08-21T02:40:51;55.10;;;30.42;;
5912;SDS011;2982;42.684;23.356;2022-08-21T02:43:18;61.13;;;31.50;;
5912;SDS011;2982;42.684;23.356;2022-08-21T02:45:45;51.45;;;29.85;;
5912;SDS011;2982;42.684;23.356;2022-08-21T02:48:12;54.40;;;29.63;;
5912;SDS011;2982;42.684;23.356;2022-08-21T02:50:41;53.47;;;28.02;;
5912;SDS011;2982;42.684;23.356;2022-08-21T02:53:12;56.30;;;29.13;;
5912;SDS011;2982;42.684;23.356;2022-08-21T02:55:39;55.22;;;29.65;;
5912;SDS011;2982;42.684;23.356;2022-08-21T02:58:05;44.70;;;26.48;;
5912;SDS011;2982;42.684;23.356;2022-08-21T03:00:32;35.00;;;21.30;;
5912;SDS011;2982;42.684;23.356;2022-08-21T03:02:58;33.45;;;20.55;;
5912;SDS011;2982;42.684;23.356;2022-08-21T03:05:26;33.83;;;19.27;;
5912;SDS011;2982;42.684;23.356;2022-08-21T03:07:56;27.35;;;18.38;;
5912;SDS011;2982;42.684;23.356;2022-08-21T03:10:22;35.00;;;19.90;;
5912;SDS011;2982;42.684;23.356;2022-08-21T03:12:48;26.90;;;16.98;;
5912;SDS011;2982;42.684;23.356;2022-08-21T03:15:14;27.27;;;17.65;;
5912;SDS011;2982;42.684;23.356;2022-08-21T03:17:41;26.77;;;16.52;;
5912;SDS011;2982;42.684;23.356;2022-08-21T03:20:07;21.20;;;15.93;;
5912;SDS011;2982;42.684;23.356;2022-08-21T03:22:33;24.30;;;15.90;;
5912;SDS011;2982;42.684;23.356;2022-08-21T03:24:59;18.30;;;13.82;;
5912;SDS011;2982;42.684;23.356;2022-08-21T03:27:25;20.63;;;14.88;;
5912;SDS011;2982;42.684;23.356;2022-08-21T03:29:52;21.48;;;15.13;;
5912;SDS011;2982;42.684;23.356;2022-08-21T03:32:18;22.27;;;14.88;;
5912;SDS011;2982;42.684;23.356;2022-08-21T03:34:43;19.38;;;13.85;;
5912;SDS011;2982;42.684;23.356;2022-08-21T03:37:08;21.88;;;15.85;;
5912;SDS011;2982;42.684;23.356;2022-08-21T03:39:34;25.35;;;17.88;;
5912;SDS011;2982;42.684;23.356;2022-08-21T03:41:59;24.30;;;17.90;;
5912;SDS011;2982;42.684;23.356;2022-08-21T03:44:25;31.30;;;17.70;;
5912;SDS011;2982;42.684;23.356;2022-08-21T03:46:51;33.65;;;18.73;;
5912;SDS011;2982;42.684;23.356;2022-08-21T03:49:17;33.20;;;19.27;;
5912;SDS011;2982;42.684;23.356;2022-08-21T03:51:42;28.45;;;17.40;;
5912;SDS011;2982;42.684;23.356;2022-08-21T03:54:07;22.77;;;14.88;;
5912;SDS011;2982;42.684;23.356;2022-08-21T03:56:33;22.15;;;14.82;;
5912;SDS011;2982;42.684;23.356;2022-08-21T03:58:58;18.85;;;13.70;;
5912;SDS011;2982;42.684;23.356;2022-08-21T04:01:23;16.52;;;12.10;;
5912;SDS011;2982;42.684;23.356;2022-08-21T04:03:48;16.63;;;12.48;;
5912;SDS011;2982;42.684;23.356;2022-08-21T04:06:14;17.95;;;12.85;;
5912;SDS011;2982;42.684;23.356;2022-08-21T04:08:39;15.07;;;12.70;;
5912;SDS011;2982;42.684;23.356;2022-08-21T04:11:04;13.38;;;11.95;;
5912;SDS011;2982;42.684;23.356;2022-08-21T04:13:30;20.90;;;13.55;;
5912;SDS011;2982;42.684;23.356;2022-08-21T04:15:56;14.40;;;12.63;;
5912;SDS011;2982;42.684;23.356;2022-08-21T04:18:22;17.95;;;12.55;;
5912;SDS011;2982;42.684;23.356;2022-08-21T04:20:47;16.55;;;12.77;;
5912;SDS011;2982;42.684;23.356;2022-08-21T04:23:15;20.38;;;13.43;;
5912;SDS011;2982;42.684;23.356;2022-08-21T04:25:41;20.00;;;12.07;;
5912;SDS011;2982;42.684;23.356;2022-08-21T04:28:06;16.10;;;13.15;;
5912;SDS011;2982;42.684;23.356;2022-08-21T04:30:32;20.85;;;13.32;;
5912;SDS011;2982;42.684;23.356;2022-08-21T04:32:57;17.98;;;13.02;;
5912;SDS011;2982;42.684;23.356;2022-08-21T04:35:23;20.13;;;12.82;;
5912;SDS011;2982;42.684;23.356;2022-08-21T04:37:50;16.27;;;12.90;;
5912;SDS011;2982;42.684;23.356;2022-08-21T04:40:16;17.80;;;12.93;;
5912;SDS011;2982;42.684;23.356;2022-08-21T04:42:50;16.05;;;12.43;;
5912;SDS011;2982;42.684;23.356;2022-08-21T04:45:27;13.55;;;12.20;;
5912;SDS011;2982;42.684;23.356;2022-08-21T04:47:56;16.52;;;12.48;;
5912;SDS011;2982;42.684;23.356;2022-08-21T04:50:25;14.82;;;12.90;;
5912;SDS011;2982;42.684;23.356;2022-08-21T04:52:55;21.50;;;13.13;;
5912;SDS011;2982;42.684;23.356;2022-08-21T04:55:21;12.95;;;11.65;;
5912;SDS011;2982;42.684;23.356;2022-08-21T04:57:49;15.50;;;11.57;;
5912;SDS011;2982;42.684;23.356;2022-08-21T05:00:15;13.20;;;11.73;;
5912;SDS011;2982;42.684;23.356;2022-08-21T05:02:41;14.05;;;11.55;;
5912;SDS011;2982;42.684;23.356;2022-08-21T05:05:07;13.45;;;10.98;;
5912;SDS011;2982;42.684;23.356;2022-08-21T05:07:33;15.07;;;10.07;;
5912;SDS011;2982;42.684;23.356;2022-08-21T05:09:59;11.70;;;10.45;;
5912;SDS011;2982;42.684;23.356;2022-08-21T05:12:25;11.43;;;10.30;;
5912;SDS011;2982;42.684;23.356;2022-08-21T05:14:51;11.23;;;9.10;;
5912;SDS011;2982;42.684;23.356;2022-08-21T05:17:16;9.77;;;8.38;;
5912;SDS011;2982;42.684;23.356;2022-08-21T05:19:41;8.95;;;8.18;;
5912;SDS011;2982;42.684;23.356;2022-08-21T05:22:07;12.55;;;7.65;;
5912;SDS011;2982;42.684;23.356;2022-08-21T05:24:32;9.43;;;6.75;;
5912;SDS011;2982;42.684;23.356;2022-08-21T05:26:58;9.05;;;6.90;;
5912;SDS011;2982;42.684;23.356;2022-08-21T05:29:23;11.45;;;8.50;;
5912;SDS011;2982;42.684;23.356;2022-08-21T05:31:48;9.88;;;8.88;;
5912;SDS011;2982;42.684;23.356;2022-08-21T05:34:15;10.93;;;8.38;;
5912;SDS011;2982;42.684;23.356;2022-08-21T05:36:43;8.20;;;7.40;;
5912;SDS011;2982;42.684;23.356;2022-08-21T05:39:12;10.52;;;7.95;;
5912;SDS011;2982;42.684;23.356;2022-08-21T05:41:37;9.38;;;8.50;;
5912;SDS011;2982;42.684;23.356;2022-08-21T05:44:02;8.23;;;6.50;;
5912;SDS011;2982;42.684;23.356;2022-08-21T05:46:28;7.13;;;6.53;;
5912;SDS011;2982;42.684;23.356;2022-08-21T05:48:54;7.40;;;6.75;;
5912;SDS011;2982;42.684;23.356;2022-08-21T05:51:26;11.50;;;10.38;;
5912;SDS011;2982;42.684;23.356;2022-08-21T05:53:51;9.88;;;8.90;;
5912;SDS011;2982;42.684;23.356;2022-08-21T05:56:16;10.20;;;9.13;;
5912;SDS011;2982;42.684;23.356;2022-08-21T05:58:41;10.80;;;9.77;;
5912;SDS011;2982;42.684;23.356;2022-08-21T06:01:07;10.40;;;9.40;;
5912;SDS011;2982;42.684;23.356;2022-08-21T06:03:34;9.65;;;8.80;;
5912;SDS011;2982;42.684;23.356;2022-08-21T06:06:02;11.32;;;9.07;;
5912;SDS011;2982;42.684;23.356;2022-08-21T06:08:28;11.23;;;9.85;;
5912;SDS011;2982;42.684;23.356;2022-08-21T06:10:54;18.38;;;12.75;;
5912;SDS011;2982;42.684;23.356;2022-08-21T06:13:22;10.82;;;9.77;;
5912;SDS011;2982;42.684;23.356;2022-08-21T06:15:48;11.75;;;9.00;;
5912;SDS011;2982;42.684;23.356;2022-08-21T06:18:15;8.63;;;8.00;;
5912;SDS011;2982;42.684;23.356;2022-08-21T06:20:41;9.65;;;8.73;;
5912;SDS011;2982;42.684;23.356;2022-08-21T06:23:06;7.85;;;7.13;;
5912;SDS011;2982;42.684;23.356;2022-08-21T06:25:32;8.07;;;7.25;;
5912;SDS011;2982;42.684;23.356;2022-08-21T06:28:15;9.15;;;8.35;;
5912;SDS011;2982;42.684;23.356;2022-08-21T06:30:41;9.45;;;8.50;;
5912;SDS011;2982;42.684;23.356;2022-08-21T06:33:06;10.32;;;8.30;;
5912;SDS011;2982;42.684;23.356;2022-08-21T06:35:32;10.05;;;9.38;;
5912;SDS011;2982;42.684;23.356;2022-08-21T06:37:57;9.90;;;8.43;;
5912;SDS011;2982;42.684;23.356;2022-08-21T06:40:22;10.05;;;9.15;;
5912;SDS011;2982;42.684;23.356;2022-08-21T06:42:48;10.82;;;9.15;;
5912;SDS011;2982;42.684;23.356;2022-08-21T06:45:13;12.30;;;9.93;;
5912;SDS011;2982;42.684;23.356;2022-08-21T06:47:39;10.82;;;9.57;;
5912;SDS011;2982;42.684;23.356;2022-08-21T06:50:04;13.45;;;9.38;;
5912;SDS011;2982;42.684;23.356;2022-08-21T06:52:30;13.98;;;8.38;;
5912;SDS011;2982;42.684;23.356;2022-08-21T06:54:55;10.73;;;7.25;;
5912;SDS011;2982;42.684;23.356;2022-08-21T06:57:22;10.00;;;8.93;;
5912;SDS011;2982;42.684;23.356;2022-08-21T06:59:47;19.08;;;14.07;;
5912;SDS011;2982;42.684;23.356;2022-08-21T07:02:13;14.90;;;10.30;;
5912;SDS011;2982;42.684;23.356;2022-08-21T07:04:39;14.23;;;9.48;;
5912;SDS011;2982;42.684;23.356;2022-08-21T07:07:06;9.88;;;7.10;;
5912;SDS011;2982;42.684;23.356;2022-08-21T07:09:32;8.95;;;8.05;;
5912;SDS011;2982;42.684;23.356;2022-08-21T07:11:57;12.10;;;8.75;;
5912;SDS011;2982;42.684;23.356;2022-08-21T07:14:22;14.02;;;8.63;;
5912;SDS011;2982;42.684;23.356;2022-08-21T07:16:48;8.35;;;7.53;;
5912;SDS011;2982;42.684;23.356;2022-08-21T07:19:14;12.77;;;8.32;;
5912;SDS011;2982;42.684;23.356;2022-08-21T07:21:39;10.50;;;7.53;;
5912;SDS011;2982;42.684;23.356;2022-08-21T07:24:04;9.40;;;8.18;;
5912;SDS011;2982;42.684;23.356;2022-08-21T07:26:30;12.07;;;7.60;;
5912;SDS011;2982;42.684;23.356;2022-08-21T07:28:55;8.95;;;6.70;;
5912;SDS011;2982;42.684;23.356;2022-08-21T07:31:21;8.23;;;7.30;;
5912;SDS011;2982;42.684;23.356;2022-08-21T07:33:50;8.20;;;6.15;;
5912;SDS011;2982;42.684;23.356;2022-08-21T07:36:16;11.60;;;6.47;;
5912;SDS011;2982;42.684;23.356;2022-08-21T07:38:41;7.45;;;6.13;;
5912;SDS011;2982;42.684;23.356;2022-08-21T07:41:12;11.05;;;6.30;;
5912;SDS011;2982;42.684;23.356;2022-08-21T07:43:40;9.65;;;7.40;;
5912;SDS011;2982;42.684;23.356;2022-08-21T07:46:05;9.65;;;5.88;;
5912;SDS011;2982;42.684;23.356;2022-08-21T07:48:31;8.80;;;6.15;;
5912;SDS011;2982;42.684;23.356;2022-08-21T07:50:56;10.02;;;6.00;;
5912;SDS011;2982;42.684;23.356;2022-08-21T07:53:23;13.65;;;6.88;;
5912;SDS011;2982;42.684;23.356;2022-08-21T07:55:48;9.38;;;6.13;;
5912;SDS011;2982;42.684;23.356;2022-08-21T07:58:13;12.55;;;6.55;;
5912;SDS011;2982;42.684;23.356;2022-08-21T08:00:39;10.40;;;6.63;;
5912;SDS011;2982;42.684;23.356;2022-08-21T08:03:05;8.43;;;7.65;;
5912;SDS011;2982;42.684;23.356;2022-08-21T08:05:30;10.13;;;8.30;;
5912;SDS011;2982;42.684;23.356;2022-08-21T08:07:56;8.18;;;7.47;;
5912;SDS011;2982;42.684;23.356;2022-08-21T08:10:22;8.50;;;7.70;;
5912;SDS011;2982;42.684;23.356;2022-08-21T08:12:48;10.57;;;8.13;;
5912;SDS011;2982;42.684;23.356;2022-08-21T08:15:15;10.68;;;9.02;;
5912;SDS011;2982;42.684;23.356;2022-08-21T08:17:43;12.57;;;8.20;;
5912;SDS011;2982;42.684;23.356;2022-08-21T08:20:09;14.50;;;8.63;;
5912;SDS011;2982;42.684;23.356;2022-08-21T08:22:37;10.15;;;7.95;;
5912;SDS011;2982;42.684;23.356;2022-08-21T08:25:04;9.07;;;8.00;;
5912;SDS011;2982;42.684;23.356;2022-08-21T08:27:31;10.70;;;8.20;;
5912;SDS011;2982;42.684;23.356;2022-08-21T08:29:56;15.15;;;9.85;;
5912;SDS011;2982;42.684;23.356;2022-08-21T08:32:22;15.63;;;10.02;;
5912;SDS011;2982;42.684;23.356;2022-08-21T08:34:56;11.20;;;10.05;;
5912;SDS011;2982;42.684;23.356;2022-08-21T08:37:21;15.80;;;10.68;;
5912;SDS011;2982;42.684;23.356;2022-08-21T08:39:47;13.40;;;9.43;;
5912;SDS011;2982;42.684;23.356;2022-08-21T08:44:42;10.63;;;9.27;;
5912;SDS011;2982;42.684;23.356;2022-08-21T08:47:10;13.30;;;9.23;;
5912;SDS011;2982;42.684;23.356;2022-08-21T08:49:43;14.75;;;9.82;;
5912;SDS011;2982;42.684;23.356;2022-08-21T08:52:28;12.82;;;7.80;;
5912;SDS011;2982;42.684;23.356;2022-08-21T08:57:27;10.15;;;6.80;;
5912;SDS011;2982;42.684;23.356;2022-08-21T08:59:53;10.98;;;6.63;;
5912;SDS011;2982;42.684;23.356;2022-08-21T09:02:21;9.10;;;6.70;;
5912;SDS011;2982;42.684;23.356;2022-08-21T09:04:47;8.13;;;7.38;;
5912;SDS011;2982;42.684;23.356;2022-08-21T09:15:24;10.70;;;6.55;;
5912;SDS011;2982;42.684;23.356;2022-08-21T09:18:03;7.10;;;6.38;;
5912;SDS011;2982;42.684;23.356;2022-08-21T09:21:11;10.30;;;6.50;;
5912;SDS011;2982;42.684;23.356;2022-08-21T09:24:01;7.97;;;6.68;;
5912;SDS011;2982;42.684;23.356;2022-08-21T09:26:47;6.88;;;6.35;;
5912;SDS011;2982;42.684;23.356;2022-08-21T09:29:13;13.40;;;6.50;;
5912;SDS011;2982;42.684;23.356;2022-08-21T09:31:42;7.85;;;5.80;;
5912;SDS011;2982;42.684;23.356;2022-08-21T09:34:08;8.13;;;6.38;;
5912;SDS011;2982;42.684;23.356;2022-08-21T09:39:04;9.50;;;6.45;;
5912;SDS011;2982;42.684;23.356;2022-08-21T09:41:32;7.93;;;5.25;;
5912;SDS011;2982;42.684;23.356;2022-08-21T09:43:58;6.95;;;5.53;;
5912;SDS011;2982;42.684;23.356;2022-08-21T09:46:24;7.35;;;6.75;;
5912;SDS011;2982;42.684;23.356;2022-08-21T09:48:58;7.00;;;5.53;;
5912;SDS011;2982;42.684;23.356;2022-08-21T09:51:26;8.98;;;6.07;;
5912;SDS011;2982;42.684;23.356;2022-08-21T09:56:32;8.07;;;5.55;;
5912;SDS011;2982;42.684;23.356;2022-08-21T09:59:00;7.40;;;5.97;;
5912;SDS011;2982;42.684;23.356;2022-08-21T10:01:25;7.35;;;5.35;;
5912;SDS011;2982;42.684;23.356;2022-08-21T10:04:04;9.57;;;6.22;;
5912;SDS011;2982;42.684;23.356;2022-08-21T10:06:32;6.18;;;5.65;;
5912;SDS011;2982;42.684;23.356;2022-08-21T10:09:09;6.13;;;5.15;;
5912;SDS011;2982;42.684;23.356;2022-08-21T10:11:35;5.47;;;5.03;;
5912;SDS011;2982;42.684;23.356;2022-08-21T10:16:53;8.48;;;5.68;;
5912;SDS011;2982;42.684;23.356;2022-08-21T10:22:08;8.77;;;5.68;;
5912;SDS011;2982;42.684;23.356;2022-08-21T10:31:04;11.98;;;6.15;;
5912;SDS011;2982;42.684;23.356;2022-08-21T10:33:41;6.70;;;5.20;;
5912;SDS011;2982;42.684;23.356;2022-08-21T10:36:26;6.22;;;5.28;;
5912;SDS011;2982;42.684;23.356;2022-08-21T10:39:03;7.75;;;5.43;;
5912;SDS011;2982;42.684;23.356;2022-08-21T10:47:30;5.30;;;4.88;;
5912;SDS011;2982;42.684;23.356;2022-08-21T10:55:32;5.60;;;4.82;;
5912;SDS011;2982;42.684;23.356;2022-08-21T10:58:11;6.78;;;5.03;;
5912;SDS011;2982;42.684;23.356;2022-08-21T11:00:46;6.03;;;5.10;;
5912;SDS011;2982;42.684;23.356;2022-08-21T11:03:16;8.00;;;5.47;;
5912;SDS011;2982;42.684;23.356;2022-08-21T11:05:57;8.98;;;5.53;;
5912;SDS011;2982;42.684;23.356;2022-08-21T11:08:31;8.23;;;4.43;;
5912;SDS011;2982;42.684;23.356;2022-08-21T11:13:53;7.28;;;4.85;;
5912;SDS011;2982;42.684;23.356;2022-08-21T11:24:46;9.25;;;4.63;;
5912;SDS011;2982;42.684;23.356;2022-08-21T11:29:59;6.40;;;4.45;;
5912;SDS011;2982;42.684;23.356;2022-08-21T11:35:32;7.82;;;4.22;;
5912;SDS011;2982;42.684;23.356;2022-08-21T11:38:26;7.07;;;4.15;;
5912;SDS011;2982;42.684;23.356;2022-08-21T11:51:22;6.60;;;4.40;;
5912;SDS011;2982;42.684;23.356;2022-08-21T11:54:09;9.52;;;4.10;;
5912;SDS011;2982;42.684;23.356;2022-08-21T11:56:47;4.85;;;4.07;;
5912;SDS011;2982;42.684;23.356;2022-08-21T11:59:22;6.00;;;4.05;;
5912;SDS011;2982;42.684;23.356;2022-08-21T12:01:52;6.03;;;4.28;;
5912;SDS011;2982;42.684;23.356;2022-08-21T12:04:22;8.38;;;4.53;;
5912;SDS011;2982;42.684;23.356;2022-08-21T12:06:49;7.10;;;4.72;;
5912;SDS011;2982;42.684;23.356;2022-08-21T12:14:49;7.53;;;5.88;;
5912;SDS011;2982;42.684;23.356;2022-08-21T12:17:36;5.88;;;4.40;;
5912;SDS011;2982;42.684;23.356;2022-08-21T12:23:02;7.25;;;5.10;;
5912;SDS011;2982;42.684;23.356;2022-08-21T12:28:23;5.13;;;4.82;;
5912;SDS011;2982;42.684;23.356;2022-08-21T12:30:50;11.95;;;5.68;;
5912;SDS011;2982;42.684;23.356;2022-08-21T12:33:30;7.75;;;5.05;;
5912;SDS011;2982;42.684;23.356;2022-08-21T12:36:06;5.68;;;5.30;;
5912;SDS011;2982;42.684;23.356;2022-08-21T12:41:18;4.78;;;4.38;;
5912;SDS011;2982;42.684;23.356;2022-08-21T12:43:47;5.50;;;4.93;;
5912;SDS011;2982;42.684;23.356;2022-08-21T12:46:22;10.68;;;5.35;;
5912;SDS011;2982;42.684;23.356;2022-08-21T12:48:56;5.63;;;5.13;;
5912;SDS011;2982;42.684;23.356;2022-08-21T12:51:38;6.03;;;5.07;;
5912;SDS011;2982;42.684;23.356;2022-08-21T12:54:29;9.23;;;4.43;;
5912;SDS011;2982;42.684;23.356;2022-08-21T12:57:02;17.30;;;4.97;;
5912;SDS011;2982;42.684;23.356;2022-08-21T12:59:29;5.40;;;5.00;;
5912;SDS011;2982;42.684;23.356;2022-08-21T13:01:55;8.95;;;4.88;;
5912;SDS011;2982;42.684;23.356;2022-08-21T13:04:25;6.38;;;4.95;;
5912;SDS011;2982;42.684;23.356;2022-08-21T13:06:58;6.57;;;4.72;;
5912;SDS011;2982;42.684;23.356;2022-08-21T13:09:26;5.30;;;4.75;;
5912;SDS011;2982;42.684;23.356;2022-08-21T13:11:54;5.07;;;4.28;;
5912;SDS011;2982;42.684;23.356;2022-08-21T13:14:29;4.95;;;4.53;;
5912;SDS011;2982;42.684;23.356;2022-08-21T13:16:58;4.30;;;3.92;;
5912;SDS011;2982;42.684;23.356;2022-08-21T13:19:25;6.60;;;3.97;;
5912;SDS011;2982;42.684;23.356;2022-08-21T13:21:51;10.07;;;4.65;;
5912;SDS011;2982;42.684;23.356;2022-08-21T13:26:49;7.93;;;6.65;;
5912;SDS011;2982;42.684;23.356;2022-08-21T13:29:16;6.25;;;4.10;;
5912;SDS011;2982;42.684;23.356;2022-08-21T13:31:48;9.32;;;3.72;;
5912;SDS011;2982;42.684;23.356;2022-08-21T13:34:14;5.78;;;4.18;;
5912;SDS011;2982;42.684;23.356;2022-08-21T13:36:41;5.20;;;4.57;;
5912;SDS011;2982;42.684;23.356;2022-08-21T13:39:08;8.45;;;5.50;;
5912;SDS011;2982;42.684;23.356;2022-08-21T13:41:37;4.80;;;3.97;;
5912;SDS011;2982;42.684;23.356;2022-08-21T13:44:22;5.05;;;4.55;;
5912;SDS011;2982;42.684;23.356;2022-08-21T13:46:55;6.63;;;4.32;;
5912;SDS011;2982;42.684;23.356;2022-08-21T13:49:26;7.57;;;4.30;;
5912;SDS011;2982;42.684;23.356;2022-08-21T13:52:02;5.93;;;4.93;;
5912;SDS011;2982;42.684;23.356;2022-08-21T13:54:34;4.50;;;4.03;;
5912;SDS011;2982;42.684;23.356;2022-08-21T13:57:15;6.15;;;4.40;;
5912;SDS011;2982;42.684;23.356;2022-08-21T13:59:45;8.23;;;4.65;;
5912;SDS011;2982;42.684;23.356;2022-08-21T14:02:12;10.93;;;5.18;;
5912;SDS011;2982;42.684;23.356;2022-08-21T14:04:48;5.20;;;4.20;;
5912;SDS011;2982;42.684;23.356;2022-08-21T14:07:19;5.88;;;4.47;;
5912;SDS011;2982;42.684;23.356;2022-08-21T14:09:49;6.28;;;4.80;;
5912;SDS011;2982;42.684;23.356;2022-08-21T14:12:16;8.07;;;4.53;;
5912;SDS011;2982;42.684;23.356;2022-08-21T14:14:49;5.78;;;4.75;;
5912;SDS011;2982;42.684;23.356;2022-08-21T14:17:25;4.45;;;4.13;;
5912;SDS011;2982;42.684;23.356;2022-08-21T14:19:57;8.57;;;4.32;;
5912;SDS011;2982;42.684;23.356;2022-08-21T14:25:07;4.90;;;4.47;;
5912;SDS011;2982;42.684;23.356;2022-08-21T14:27:34;4.95;;;4.47;;
5912;SDS011;2982;42.684;23.356;2022-08-21T14:30:25;4.47;;;4.10;;
5912;SDS011;2982;42.684;23.356;2022-08-21T14:33:00;6.38;;;4.47;;
5912;SDS011;2982;42.684;23.356;2022-08-21T14:35:27;6.13;;;5.47;;
5912;SDS011;2982;42.684;23.356;2022-08-21T14:37:55;9.30;;;4.57;;
5912;SDS011;2982;42.684;23.356;2022-08-21T14:40:21;4.88;;;4.30;;
5912;SDS011;2982;42.684;23.356;2022-08-21T14:42:47;8.40;;;4.30;;
5912;SDS011;2982;42.684;23.356;2022-08-21T14:45:14;11.75;;;5.43;;
5912;SDS011;2982;42.684;23.356;2022-08-21T14:47:46;8.85;;;4.55;;
5912;SDS011;2982;42.684;23.356;2022-08-21T14:50:11;5.78;;;4.93;;
5912;SDS011;2982;42.684;23.356;2022-08-21T14:52:38;9.75;;;5.18;;
5912;SDS011;2982;42.684;23.356;2022-08-21T14:55:05;6.88;;;5.00;;
5912;SDS011;2982;42.684;23.356;2022-08-21T14:57:32;6.75;;;5.45;;
5912;SDS011;2982;42.684;23.356;2022-08-21T14:59:59;5.28;;;4.82;;
5912;SDS011;2982;42.684;23.356;2022-08-21T15:02:24;6.80;;;4.93;;
5912;SDS011;2982;42.684;23.356;2022-08-21T15:04:50;5.63;;;5.13;;
5912;SDS011;2982;42.684;23.356;2022-08-21T15:07:15;7.68;;;5.05;;
5912;SDS011;2982;42.684;23.356;2022-08-21T15:09:41;7.43;;;5.13;;
5912;SDS011;2982;42.684;23.356;2022-08-21T15:12:06;6.82;;;4.88;;
5912;SDS011;2982;42.684;23.356;2022-08-21T15:14:33;6.97;;;5.40;;
5912;SDS011;2982;42.684;23.356;2022-08-21T15:17:01;5.95;;;5.38;;
5912;SDS011;2982;42.684;23.356;2022-08-21T15:19:27;5.18;;;4.78;;
5912;SDS011;2982;42.684;23.356;2022-08-21T15:21:52;5.85;;;5.07;;
5912;SDS011;2982;42.684;23.356;2022-08-21T15:24:17;6.05;;;5.15;;
5912;SDS011;2982;42.684;23.356;2022-08-21T15:26:43;5.95;;;5.38;;
5912;SDS011;2982;42.684;23.356;2022-08-21T15:29:09;5.85;;;5.07;;
5912;SDS011;2982;42.684;23.356;2022-08-21T15:31:35;5.60;;;5.25;;
5912;SDS011;2982;42.684;23.356;2022-08-21T15:34:00;5.60;;;5.10;;
5912;SDS011;2982;42.684;23.356;2022-08-21T15:36:26;5.03;;;4.63;;
5912;SDS011;2982;42.684;23.356;2022-08-21T15:38:51;6.93;;;5.65;;
5912;SDS011;2982;42.684;23.356;2022-08-21T15:41:17;6.03;;;5.53;;
5912;SDS011;2982;42.684;23.356;2022-08-21T15:43:45;7.13;;;4.68;;
5912;SDS011;2982;42.684;23.356;2022-08-21T15:46:13;7.90;;;5.80;;
5912;SDS011;2982;42.684;23.356;2022-08-21T15:48:40;11.02;;;5.53;;
5912;SDS011;2982;42.684;23.356;2022-08-21T15:51:09;5.82;;;5.30;;
5912;SDS011;2982;42.684;23.356;2022-08-21T15:53:41;6.10;;;5.53;;
5912;SDS011;2982;42.684;23.356;2022-08-21T15:56:11;10.80;;;6.35;;
5912;SDS011;2982;42.684;23.356;2022-08-21T15:58:44;5.90;;;5.47;;
5912;SDS011;2982;42.684;23.356;2022-08-21T16:01:10;7.05;;;5.95;;
5912;SDS011;2982;42.684;23.356;2022-08-21T16:03:35;6.72;;;6.10;;
5912;SDS011;2982;42.684;23.356;2022-08-21T16:06:01;7.03;;;6.03;;
5912;SDS011;2982;42.684;23.356;2022-08-21T16:08:26;6.13;;;5.60;;
5912;SDS011;2982;42.684;23.356;2022-08-21T16:10:51;7.53;;;6.03;;
5912;SDS011;2982;42.684;23.356;2022-08-21T16:13:25;8.60;;;5.88;;
5912;SDS011;2982;42.684;23.356;2022-08-21T16:16:01;9.38;;;7.93;;
5912;SDS011;2982;42.684;23.356;2022-08-21T16:18:27;6.80;;;5.70;;
5912;SDS011;2982;42.684;23.356;2022-08-21T16:20:52;9.55;;;7.18;;
5912;SDS011;2982;42.684;23.356;2022-08-21T16:23:18;9.65;;;6.03;;